Racine, MN (55967)

9:59 AM CDT on July 29, 2016 (GMT -0500)
Steve's Weather Station | | Change Station

Elev 1296 ft 43.83 °N, 92.61 °W | Updated 1 minute ago

Overcast
Overcast
66.9 °F
Feels Like 66.9 °F
N
6.4
Wind Variable Wind from NNE
Gusts 6.9 mph

Today
High -- | Low -- °F
--% Chance of Precip.
Yesterday
High -- | Low -- °F
Precip. -- in
Pressure 30.05 in
Visibility 10.0 miles
Clouds Overcast 5500 ft
Dew Point 60 °F
Humidity 79%
Rainfall 0.00 in
Snow Depth Not available.
5:56 AM 8:36 PM
Waning Crescent, 21% visible
METAR KRST 291454Z 05008KT 10SM OVC055 19/16 A3006 RMK AO2 SLP176 60000 T01890156 51007
Pressure 30.05 in
Visibility 10.0 miles
Clouds Overcast 5500 ft
Dew Point 60 °F
Humidity 79%
Rainfall 0.00 in
Snow Depth Not available.
5:56 AM 8:36 PM
Waning Crescent, 21% visible
METAR KRST 291454Z 05008KT 10SM OVC055 19/16 A3006 RMK AO2 SLP176 60000 T01890156 51007

10-Day Weather Forecast

Almanac

Astronomy

Jul. 29, 2016 Rise Set
Actual Time
Civil Twilight
Nautical Twilight
Astronomical Twilight
Moon
Length of Visible Light
Length of Day
Tomorrow will be .
, % of the Moon is Illuminated

Today's Extremes

State Highs State Lows

Community

WunderPhotos

Upload Photos

1,928,343 photos uploaded!

WunderBlog® & News

Nearby

Air Quality

  Air Quality AQ Index Pollutant
Not available.

Snow Depth

Station Depth Elevation

Earthquake Activity

City Distance Mag. Time & Date
Minimum magnitude displayed is 2.5.

Coastal Water Temperatures

Place Temperature

Stations

Nearby Weather Stations

Station Location Temp. Windchill Dew Point Humidity Wind Precip. Elev Updated Type
                   

Watches & Warnings

There are currently no watches in effect.